Time;durP1;ratioP1;P1;durP2;ratioP2;P2;SDS_P1;SDS_P2;PMS_P1;PMS_P2;Temp;Humidity;BMP_temperature;BMP_pressure;BME280_temperature;BME280_humidity;BME280_pressure;Samples;Min_cycle;Max_cycle;Signal;HPM_P1;HPM_P2
2022/10/01 00:00:25;;;;;;;3.83;2.20;;;14.80;97.00;;;;;;5074402;28;20594;-72
2022/10/01 00:02:53;;;;;;;4.27;2.20;;;14.80;97.30;;;;;;5074387;28;20569;-72
2022/10/01 00:05:19;;;;;;;4.70;2.13;;;14.80;97.30;;;;;;5076270;28;20597;-73
2022/10/01 00:07:45;;;;;;;5.28;2.10;;;14.80;97.20;;;;;;5095221;28;20295;-74
2022/10/01 00:10:13;;;;;;;2.83;1.73;;;14.80;97.50;;;;;;5074258;28;20586;-74
2022/10/01 00:12:46;;;;;;;4.90;1.73;;;14.80;97.50;;;;;;5092381;28;20589;-74
2022/10/01 00:15:15;;;;;;;3.70;2.00;;;14.80;97.40;;;;;;5074229;28;20613;-74
2022/10/01 00:17:42;;;;;;;2.90;1.90;;;14.90;97.30;;;;;;5074132;28;20935;-74
2022/10/01 00:20:09;;;;;;;3.17;2.13;;;14.90;97.60;;;;;;5092291;28;20550;-74
2022/10/01 00:22:35;;;;;;;2.45;1.98;;;14.90;97.20;;;;;;5092341;28;20570;-74
2022/10/01 00:25:03;;;;;;;3.03;1.40;;;14.90;97.30;;;;;;5074230;28;20679;-74
2022/10/01 00:27:28;;;;;;;2.40;1.53;;;15.00;97.30;;;;;;5092247;28;21058;-75
2022/10/01 00:29:55;;;;;;;2.30;1.70;;;15.00;97.40;;;;;;5074152;28;20665;-74
2022/10/01 00:32:21;;;;;;;2.60;1.93;;;15.00;97.40;;;;;;5073879;28;20231;-74
2022/10/01 00:34:50;;;;;;;3.37;1.47;;;15.00;97.40;;;;;;5074300;28;20598;-73
2022/10/01 00:37:17;;;;;;;2.77;1.90;;;15.00;97.70;;;;;;5074223;28;20596;-73
2022/10/01 00:39:43;;;;;;;3.20;1.90;;;15.00;97.70;;;;;;5056888;28;20586;-73
2022/10/01 00:42:18;;;;;;;3.40;2.00;;;14.90;98.10;;;;;;5074273;28;20577;-73
2022/10/01 00:44:45;;;;;;;4.00;1.83;;;14.80;98.60;;;;;;5061311;28;20282;-75
2022/10/01 00:47:10;;;;;;;3.95;1.70;;;14.80;98.40;;;;;;5057360;28;20633;-75
2022/10/01 00:49:38;;;;;;;3.00;2.10;;;14.60;98.40;;;;;;5092110;28;20524;-73
2022/10/01 00:52:08;;;;;;;3.65;2.15;;;14.50;98.80;;;;;;5057127;28;20176;-73
2022/10/01 00:54:42;;;;;;;3.40;1.77;;;14.40;99.50;;;;;;5092012;28;20183;-73
2022/10/01 00:57:09;;;;;;;3.70;2.17;;;14.30;99.80;;;;;;5073969;28;20559;-73
2022/10/01 00:59:35;;;;;;;2.80;2.10;;;14.10;99.90;;;;;;5091526;28;20179;-73
2022/10/01 01:02:01;;;;;;;2.75;2.45;;;14.00;99.90;;;;;;5073633;28;20255;-73
2022/10/01 01:04:27;;;;;;;3.03;2.33;;;13.90;99.90;;;;;;5091690;28;20340;-74
2022/10/01 01:06:56;;;;;;;2.83;2.00;;;13.80;99.90;;;;;;5091774;28;20638;-74
2022/10/01 01:09:36;;;;;;;3.17;2.13;;;13.60;99.90;;;;;;5057130;28;20570;-74
2022/10/01 01:12:12;;;;;;;3.03;2.45;;;13.50;99.90;;;;;;5091563;28;20217;-74
2022/10/01 01:14:59;;;;;;;3.20;2.30;;;13.40;99.90;;;;;;5092105;28;20596;-73
2022/10/01 01:17:39;;;;;;;5.68;2.30;;;13.30;99.90;;;;;;5091788;28;20175;-73
2022/10/01 01:20:36;;;;;;;3.92;2.42;;;13.20;99.90;;;;;;5073547;28;20178;-73
2022/10/01 01:23:14;;;;;;;2.97;2.53;;;13.10;99.90;;;;;;5073482;28;20531;-73
2022/10/01 01:25:48;;;;;;;2.70;2.35;;;13.10;99.90;;;;;;5056730;28;20203;-73
2022/10/01 01:28:22;;;;;;;4.32;2.63;;;13.00;99.90;;;;;;5040006;28;20203;-73
2022/10/01 01:30:51;;;;;;;2.90;1.90;;;12.90;99.90;;;;;;5091297;28;20170;-72
2022/10/01 01:33:21;;;;;;;4.70;2.85;;;12.90;99.90;;;;;;5073481;28;20164;-73
2022/10/01 01:36:04;;;;;;;2.70;2.05;;;12.80;99.90;;;;;;5073254;28;20226;-73
2022/10/01 01:38:37;;;;;;;2.67;1.90;;;12.80;99.90;;;;;;5056886;28;20591;-73
2022/10/01 01:41:05;;;;;;;2.83;2.42;;;12.80;99.90;;;;;;5056907;28;20178;-73
2022/10/01 01:43:41;;;;;;;2.30;1.63;;;12.70;99.90;;;;;;5092294;28;20544;-72
2022/10/01 01:46:09;;;;;;;2.85;1.85;;;12.70;99.90;;;;;;5091761;28;20194;-73
2022/10/01 01:48:37;;;;;;;3.90;1.92;;;12.70;99.90;;;;;;5091631;28;20211;-73
2022/10/01 01:51:07;;;;;;;3.45;2.30;;;12.70;99.90;;;;;;5091466;28;20282;-73
2022/10/01 01:53:34;;;;;;;3.88;2.28;;;12.70;99.90;;;;;;5095357;28;20170;-73
2022/10/01 01:56:01;;;;;;;2.53;1.73;;;12.70;99.90;;;;;;5095523;28;20621;-72
2022/10/01 01:58:28;;;;;;;2.50;1.83;;;12.60;99.90;;;;;;5097910;28;20163;-73
2022/10/01 02:00:54;;;;;;;2.10;1.67;;;12.60;99.90;;;;;;5094865;28;20584;-73
2022/10/01 02:03:22;;;;;;;2.67;2.00;;;12.60;99.90;;;;;;5095127;28;20203;-73
2022/10/01 02:06:07;;;;;;;2.13;1.83;;;12.60;99.90;;;;;;5095031;28;20249;-72
2022/10/01 02:09:07;;;;;;;2.20;1.65;;;12.60;99.90;;;;;;5095153;28;20195;-72
2022/10/01 02:11:38;;;;;;;2.00;1.50;;;12.60;99.90;;;;;;5094544;28;20585;-72
2022/10/01 02:14:10;;;;;;;3.90;2.50;;;12.50;99.90;;;;;;5094785;28;20195;-72
2022/10/01 02:17:00;;;;;;;3.78;2.20;;;12.50;99.90;;;;;;5094953;28;20171;-73
2022/10/01 02:19:43;;;;;;;2.83;1.92;;;12.50;99.90;;;;;;5076570;28;20163;-72
2022/10/01 02:22:15;;;;;;;2.25;1.67;;;12.50;99.90;;;;;;5094814;28;20527;-73
2022/10/01 02:24:55;;;;;;;2.33;2.08;;;12.50;99.90;;;;;;5094439;28;20667;-72
2022/10/01 02:27:49;;;;;;;3.95;1.50;;;12.50;99.90;;;;;;5094602;28;20199;-72
2022/10/01 02:30:16;;;;;;;2.38;1.65;;;12.60;99.90;;;;;;5087980;28;20176;-72
2022/10/01 02:32:44;;;;;;;2.63;2.00;;;12.60;99.90;;;;;;5094205;28;20164;-72
2022/10/01 02:35:13;;;;;;;3.03;1.55;;;12.60;99.90;;;;;;5078192;28;20180;-72
2022/10/01 02:37:41;;;;;;;2.35;1.40;;;12.60;99.90;;;;;;5094558;28;20357;-72
2022/10/01 02:40:14;;;;;;;2.78;2.03;;;12.60;99.90;;;;;;5094097;28;20171;-73
2022/10/01 02:42:50;;;;;;;6.35;2.38;;;12.60;99.90;;;;;;5094175;28;20212;-72
2022/10/01 02:45:22;;;;;;;3.13;1.55;;;12.60;99.90;;;;;;5094250;28;20251;-73
2022/10/01 02:47:56;;;;;;;4.85;1.65;;;12.60;99.90;;;;;;5093920;28;20204;-72
2022/10/01 02:50:25;;;;;;;2.10;1.90;;;12.70;99.90;;;;;;5093791;28;20159;-72
2022/10/01 02:53:05;;;;;;;2.38;1.65;;;12.70;99.90;;;;;;5075795;28;20662;-72
2022/10/01 02:55:36;;;;;;;3.25;1.70;;;12.70;99.90;;;;;;5075950;28;20188;-72
2022/10/01 02:58:02;;;;;;;2.60;1.60;;;12.60;99.90;;;;;;5093984;28;20536;-73
2022/10/01 03:00:28;;;;;;;3.33;1.70;;;12.60;99.90;;;;;;5093647;28;20171;-72
2022/10/01 03:02:54;;;;;;;2.45;1.80;;;12.70;99.90;;;;;;5093376;28;21215;-72
2022/10/01 03:05:21;;;;;;;3.30;1.63;;;12.70;99.90;;;;;;5075815;28;20278;-72
2022/10/01 03:07:47;;;;;;;2.85;1.55;;;12.60;99.90;;;;;;5075669;28;21028;-73
2022/10/01 03:10:15;;;;;;;2.20;1.48;;;12.60;99.90;;;;;;5093572;28;20250;-72
2022/10/01 03:12:43;;;;;;;3.80;1.73;;;12.60;99.90;;;;;;5093785;28;20160;-73
2022/10/01 03:15:15;;;;;;;2.72;1.60;;;12.60;99.90;;;;;;5093572;28;20199;-72
2022/10/01 03:17:40;;;;;;;2.95;1.77;;;12.60;99.90;;;;;;5093637;28;20172;-73
2022/10/01 03:20:07;;;;;;;2.23;1.90;;;12.50;99.90;;;;;;5058614;28;20309;-72
2022/10/01 03:22:33;;;;;;;2.47;1.60;;;12.60;99.90;;;;;;5075477;28;20164;-72
2022/10/01 03:24:59;;;;;;;1.60;1.20;;;12.60;99.90;;;;;;5093523;28;20643;-72
2022/10/01 03:27:25;;;;;;;3.33;1.90;;;12.60;99.90;;;;;;5093497;28;20211;-73
2022/10/01 03:29:51;;;;;;;3.40;1.70;;;12.60;99.90;;;;;;5093185;28;20163;-73
2022/10/01 03:32:17;;;;;;;2.95;1.80;;;12.60;99.90;;;;;;5075495;28;20594;-72
2022/10/01 03:34:43;;;;;;;2.95;1.60;;;12.60;99.90;;;;;;5093337;28;20183;-73
2022/10/01 03:37:09;;;;;;;2.67;2.00;;;12.60;99.90;;;;;;5093485;28;20172;-73
2022/10/01 03:39:35;;;;;;;3.57;1.93;;;12.60;99.90;;;;;;5093114;28;20528;-72
2022/10/01 03:42:02;;;;;;;2.40;1.25;;;12.50;99.90;;;;;;5075147;28;20561;-72
2022/10/01 03:44:28;;;;;;;2.85;1.42;;;12.50;99.90;;;;;;5093004;28;20193;-72
2022/10/01 03:46:54;;;;;;;3.03;1.77;;;12.50;99.90;;;;;;5093022;28;20285;-72
2022/10/01 03:49:20;;;;;;;1.60;1.30;;;12.50;99.90;;;;;;5092855;28;20566;-73
2022/10/01 03:51:45;;;;;;;2.10;1.40;;;12.50;99.90;;;;;;5092944;28;20554;-73
2022/10/01 03:54:11;;;;;;;3.30;1.30;;;12.50;99.90;;;;;;5074867;28;20683;-73
2022/10/01 03:56:39;;;;;;;2.00;1.23;;;12.50;99.90;;;;;;5092808;28;21216;-73
2022/10/01 03:59:05;;;;;;;3.80;1.20;;;12.40;99.90;;;;;;5092912;28;20171;-72
2022/10/01 04:01:31;;;;;;;2.00;1.08;;;12.40;99.90;;;;;;5092422;28;20168;-72
2022/10/01 04:03:58;;;;;;;2.07;1.10;;;12.40;99.90;;;;;;5092797;28;20244;-72
2022/10/01 04:06:23;;;;;;;1.85;1.10;;;12.50;99.90;;;;;;5092723;28;20175;-72
2022/10/01 04:08:49;;;;;;;1.60;0.90;;;12.50;99.90;;;;;;5092680;28;20195;-72
2022/10/01 04:11:15;;;;;;;3.60;0.80;;;12.50;99.90;;;;;;5074129;28;20566;-72
2022/10/01 04:13:41;;;;;;;1.80;0.70;;;12.50;99.90;;;;;;5074054;28;20259;-72
2022/10/01 04:16:07;;;;;;;1.50;0.70;;;12.50;99.90;;;;;;5073979;28;20258;-72
2022/10/01 04:18:33;;;;;;;1.30;0.55;;;12.60;99.90;;;;;;5074435;28;20565;-72
2022/10/01 04:20:59;;;;;;;1.57;0.70;;;12.60;99.90;;;;;;5092225;28;20643;-72
2022/10/01 04:23:25;;;;;;;3.20;0.60;;;12.60;99.90;;;;;;5074097;28;20569;-72
2022/10/01 04:25:51;;;;;;;1.40;0.52;;;12.70;99.90;;;;;;5092173;28;20595;-71
2022/10/01 04:28:17;;;;;;;2.43;0.50;;;12.70;99.90;;;;;;5092375;28;20187;-71
2022/10/01 04:30:44;;;;;;;1.93;0.53;;;12.70;99.90;;;;;;5073986;28;20198;-72
2022/10/01 04:33:12;;;;;;;1.50;0.60;;;12.70;99.90;;;;;;5073891;28;20562;-72
2022/10/01 04:35:38;;;;;;;1.10;0.40;;;12.70;99.90;;;;;;5073942;28;20241;-72
2022/10/01 04:38:07;;;;;;;1.10;0.40;;;12.70;99.90;;;;;;5092314;28;20168;-72
2022/10/01 04:40:35;;;;;;;1.20;0.40;;;12.80;99.90;;;;;;5091863;28;20178;-72
2022/10/01 04:43:02;;;;;;;1.40;0.40;;;12.80;99.90;;;;;;5073662;28;20207;-71
2022/10/01 04:45:29;;;;;;;1.50;0.43;;;12.80;99.90;;;;;;5073923;28;20195;-71
2022/10/01 04:47:56;;;;;;;1.10;0.40;;;12.80;99.90;;;;;;5091982;28;20202;-72
2022/10/01 04:50:24;;;;;;;1.10;0.45;;;12.90;99.90;;;;;;5073586;28;20758;-72
2022/10/01 04:52:51;;;;;;;1.10;0.40;;;12.90;99.90;;;;;;5091669;28;20163;-72
2022/10/01 04:55:17;;;;;;;1.77;0.40;;;13.00;99.90;;;;;;5073806;28;20187;-72
2022/10/01 04:57:43;;;;;;;1.30;0.40;;;13.00;99.90;;;;;;5091807;28;20171;-72
2022/10/01 05:00:18;;;;;;;1.30;0.40;;;13.10;99.90;;;;;;5073422;28;20172;-72
2022/10/01 05:02:45;;;;;;;1.33;0.50;;;13.10;99.90;;;;;;5091748;28;20163;-72
2022/10/01 05:05:12;;;;;;;1.10;0.40;;;13.10;99.90;;;;;;5056969;28;20203;-72
2022/10/01 05:07:38;;;;;;;1.20;0.50;;;13.10;99.90;;;;;;5091701;28;20199;-72
2022/10/01 05:10:06;;;;;;;1.20;0.40;;;13.10;99.90;;;;;;5091444;28;20164;-72
2022/10/01 05:12:31;;;;;;;3.40;0.40;;;13.20;99.90;;;;;;5091666;28;20187;-72
2022/10/01 05:14:57;;;;;;;1.10;0.40;;;13.20;99.90;;;;;;5091537;28;20216;-72
2022/10/01 05:17:23;;;;;;;1.30;0.50;;;13.20;99.90;;;;;;5091735;28;20172;-72
2022/10/01 05:19:49;;;;;;;1.20;0.70;;;13.30;99.90;;;;;;5091559;28;20175;-72
2022/10/01 05:22:16;;;;;;;1.10;0.40;;;13.30;99.90;;;;;;5073703;28;20182;-72
2022/10/01 05:24:42;;;;;;;1.20;0.50;;;13.30;99.90;;;;;;5091505;28;20187;-72
2022/10/01 05:27:12;;;;;;;1.40;0.50;;;13.40;99.90;;;;;;5091530;28;20275;-73
2022/10/01 05:29:41;;;;;;;1.10;0.40;;;13.40;99.90;;;;;;5073347;28;20274;-72
2022/10/01 05:32:08;;;;;;;1.00;0.40;;;13.50;99.90;;;;;;5073353;28;20182;-73
2022/10/01 05:34:35;;;;;;;1.35;0.40;;;13.50;99.90;;;;;;5091358;28;20270;-73
2022/10/01 05:37:01;;;;;;;1.10;0.40;;;13.50;99.90;;;;;;5091428;28;20168;-73
2022/10/01 05:39:28;;;;;;;1.60;0.43;;;13.50;99.90;;;;;;5092320;28;20209;-72
2022/10/01 05:41:55;;;;;;;1.00;0.40;;;13.50;99.90;;;;;;5093442;28;20179;-73
2022/10/01 05:44:21;;;;;;;1.00;0.40;;;13.50;99.90;;;;;;5091400;28;20526;-72
2022/10/01 05:46:47;;;;;;;1.05;0.40;;;13.60;99.90;;;;;;5090008;28;20225;-73
2022/10/01 05:49:14;;;;;;;1.00;0.40;;;13.60;99.90;;;;;;5091161;28;20160;-72
2022/10/01 05:51:40;;;;;;;1.85;0.40;;;13.60;99.90;;;;;;5091079;28;20558;-72
2022/10/01 05:54:07;;;;;;;1.20;0.40;;;13.60;99.90;;;;;;5091213;28;20203;-72
2022/10/01 05:56:32;;;;;;;1.67;0.40;;;13.60;99.90;;;;;;5091146;28;20569;-72
2022/10/01 05:58:58;;;;;;;1.13;0.40;;;13.60;99.90;;;;;;5091319;28;20403;-73
2022/10/01 06:01:24;;;;;;;1.30;0.40;;;13.70;99.90;;;;;;5090955;28;20217;-72
2022/10/01 06:03:51;;;;;;;1.40;0.40;;;13.70;99.90;;;;;;5091245;28;20176;-71
2022/10/01 06:06:27;;;;;;;1.20;0.40;;;13.70;99.90;;;;;;5091168;28;20168;-71
2022/10/01 06:08:53;;;;;;;1.10;0.40;;;13.70;99.90;;;;;;5091024;28;20195;-72
2022/10/01 06:11:21;;;;;;;1.10;0.40;;;13.70;99.90;;;;;;5090735;28;20160;-73
2022/10/01 06:13:47;;;;;;;1.85;0.50;;;13.70;99.90;;;;;;5091066;28;20247;-72
2022/10/01 06:16:14;;;;;;;1.53;0.40;;;13.80;99.90;;;;;;5091223;28;20249;-72
2022/10/01 06:18:40;;;;;;;1.77;0.50;;;13.80;99.90;;;;;;5091139;28;20217;-72
2022/10/01 06:21:06;;;;;;;1.27;0.50;;;13.80;99.90;;;;;;5090753;28;20160;-73
2022/10/01 06:23:33;;;;;;;1.08;0.40;;;13.80;99.90;;;;;;5091019;28;20588;-73
2022/10/01 06:26:00;;;;;;;1.10;0.40;;;13.90;99.90;;;;;;5091093;28;20168;-73
2022/10/01 06:28:26;;;;;;;1.63;0.47;;;13.90;99.90;;;;;;5072979;28;20596;-72
2022/10/01 06:30:52;;;;;;;1.00;0.40;;;14.00;99.90;;;;;;5072810;28;20164;-73
2022/10/01 06:33:18;;;;;;;1.10;0.40;;;14.00;99.90;;;;;;5091047;28;20313;-72
2022/10/01 06:35:46;;;;;;;1.70;0.40;;;14.10;99.90;;;;;;5090817;28;20600;-71
2022/10/01 06:38:12;;;;;;;1.10;0.40;;;14.20;99.90;;;;;;5092525;28;20255;-71
2022/10/01 06:40:39;;;;;;;1.00;0.40;;;14.20;99.90;;;;;;5094461;28;20706;-72
2022/10/01 06:43:06;;;;;;;1.52;0.40;;;14.30;99.90;;;;;;5094314;28;20171;-71
2022/10/01 06:45:36;;;;;;;2.13;0.40;;;14.30;99.90;;;;;;5094405;28;20249;-71
2022/10/01 06:48:03;;;;;;;1.38;0.40;;;14.30;99.90;;;;;;5094353;28;20195;-71
2022/10/01 06:50:31;;;;;;;1.10;0.40;;;14.40;99.90;;;;;;5094024;28;20164;-71
2022/10/01 06:52:57;;;;;;;1.20;0.40;;;14.40;99.90;;;;;;5094301;28;20934;-73
2022/10/01 06:55:30;;;;;;;1.10;0.43;;;14.50;99.90;;;;;;5095828;28;20597;-73
2022/10/01 06:58:07;;;;;;;1.40;0.50;;;14.50;99.90;;;;;;5094368;28;20574;-73
2022/10/01 07:00:35;;;;;;;1.20;0.47;;;14.60;99.90;;;;;;5093968;28;20577;-73
2022/10/01 07:03:03;;;;;;;1.40;0.50;;;14.60;99.90;;;;;;5094038;28;21116;-73
2022/10/01 07:05:29;;;;;;;1.37;0.40;;;14.70;99.90;;;;;;5093747;28;20642;-73
2022/10/01 07:07:55;;;;;;;1.00;0.30;;;14.70;99.90;;;;;;5075754;28;20686;-72
2022/10/01 07:10:22;;;;;;;1.63;0.40;;;14.80;99.90;;;;;;5075502;28;21085;-72
2022/10/01 07:12:49;;;;;;;1.10;0.40;;;14.80;99.90;;;;;;5093818;28;20558;-74
2022/10/01 07:15:16;;;;;;;1.33;0.40;;;14.90;99.90;;;;;;5094398;28;20713;-78
2022/10/01 07:17:44;;;;;;;1.60;0.47;;;14.90;99.90;;;;;;5094685;28;20589;-76
2022/10/01 07:20:11;;;;;;;2.20;0.40;;;15.00;99.90;;;;;;5094627;28;20182;-77
2022/10/01 07:22:37;;;;;;;1.80;0.40;;;15.10;99.90;;;;;;5095061;28;20656;-76
2022/10/01 07:25:03;;;;;;;1.70;0.40;;;15.20;99.90;;;;;;5095344;28;20647;-77
2022/10/01 07:27:29;;;;;;;1.13;0.43;;;15.30;99.90;;;;;;5095179;28;20617;-78
2022/10/01 07:29:57;;;;;;;1.30;0.40;;;15.30;99.90;;;;;;5094834;28;20731;-77
2022/10/01 07:32:24;;;;;;;1.50;0.40;;;15.50;99.90;;;;;;5080685;28;20191;-78
2022/10/01 07:34:50;;;;;;;1.30;0.40;;;15.60;99.90;;;;;;5095194;28;20598;-77
2022/10/01 07:37:17;;;;;;;1.20;0.40;;;15.70;99.90;;;;;;5095034;28;21141;-78
2022/10/01 07:39:42;;;;;;;1.20;0.50;;;15.70;99.90;;;;;;5094987;28;20558;-79
2022/10/01 07:42:09;;;;;;;1.70;0.40;;;15.80;99.90;;;;;;5095335;28;20573;-78
2022/10/01 07:44:35;;;;;;;1.20;0.50;;;15.90;99.90;;;;;;5061146;28;20365;-78
2022/10/01 07:47:00;;;;;;;1.17;0.40;;;16.10;99.90;;;;;;5095868;28;20622;-78
2022/10/01 07:49:26;;;;;;;1.50;0.50;;;16.20;99.90;;;;;;5077850;28;20172;-78
2022/10/01 07:51:53;;;;;;;2.80;0.60;;;16.20;99.90;;;;;;5095027;28;20927;-78
2022/10/01 07:54:20;;;;;;;1.20;0.50;;;16.30;99.90;;;;;;5094005;28;20697;-78
2022/10/01 07:56:49;;;;;;;1.10;0.40;;;16.40;99.90;;;;;;5094168;28;20569;-77
2022/10/01 07:59:15;;;;;;;1.13;0.50;;;16.50;99.90;;;;;;5093407;28;20558;-77
2022/10/01 08:01:41;;;;;;;1.23;0.50;;;16.60;99.90;;;;;;5093598;28;20561;-78
2022/10/01 08:06:56;;;;;;;1.10;0.40;;;16.80;99.90;;;;;;5100453;28;20164;-78
2022/10/01 08:09:21;;;;;;;1.17;0.40;;;16.90;99.90;;;;;;5103133;28;20565;-77
2022/10/01 08:11:47;;;;;;;1.10;0.40;;;17.00;99.90;;;;;;5084665;28;20558;-77
2022/10/01 08:14:13;;;;;;;1.50;0.50;;;17.10;99.90;;;;;;5081730;28;20203;-78
2022/10/01 08:16:40;;;;;;;1.10;0.40;;;17.10;99.90;;;;;;5095344;28;20918;-77
2022/10/01 08:19:06;;;;;;;1.20;0.40;;;17.10;99.90;;;;;;5094808;28;20667;-77
2022/10/01 08:21:34;;;;;;;1.73;0.50;;;17.10;99.90;;;;;;5094939;28;20573;-77
2022/10/01 08:24:01;;;;;;;1.17;0.40;;;17.20;99.90;;;;;;5094924;28;20650;-77
2022/10/01 08:26:28;;;;;;;1.10;0.40;;;17.20;99.90;;;;;;5076886;28;20569;-77
2022/10/01 08:28:53;;;;;;;1.10;0.40;;;17.20;99.90;;;;;;5095570;28;20716;-77
2022/10/01 08:31:19;;;;;;;1.20;0.40;;;17.30;99.90;;;;;;5076769;28;20986;-77
2022/10/01 08:33:45;;;;;;;1.30;0.40;;;17.30;99.90;;;;;;5095262;28;20533;-77
2022/10/01 08:36:11;;;;;;;1.37;0.40;;;17.30;99.90;;;;;;5095789;28;20202;-78
2022/10/01 08:38:38;;;;;;;1.27;0.40;;;17.30;99.90;;;;;;5095579;28;20597;-77
2022/10/01 08:41:16;;;;;;;1.10;0.40;;;17.40;99.90;;;;;;5094678;28;20569;-78
2022/10/01 08:43:41;;;;;;;1.40;0.40;;;17.40;99.90;;;;;;5094948;28;21104;-78
2022/10/01 08:46:15;;;;;;;1.50;0.60;;;17.50;99.90;;;;;;5097092;28;20573;-77
2022/10/01 08:48:51;;;;;;;1.10;0.40;;;17.50;99.90;;;;;;5076454;28;21078;-78
2022/10/01 08:52:15;;;;;;;1.20;0.40;;;17.70;99.90;;;;;;5094345;28;20616;-77
2022/10/01 08:55:01;;;;;;;1.27;0.50;;;17.80;99.90;;;;;;5080007;28;20617;-78
2022/10/01 08:57:30;;;;;;;1.50;0.40;;;18.30;99.90;;;;;;5075582;28;20605;-75
2022/10/01 09:00:04;;;;;;;3.30;0.60;;;18.60;99.90;;;;;;5091700;28;20917;-73
2022/10/01 09:02:37;;;;;;;1.10;0.40;;;18.90;99.90;;;;;;5091525;28;20566;-73
2022/10/01 09:05:27;;;;;;;1.20;0.40;;;19.10;99.90;;;;;;5092051;28;20598;-73
2022/10/01 09:08:08;;;;;;;1.80;0.50;;;19.20;99.90;;;;;;5092012;28;20949;-73
2022/10/01 09:10:41;;;;;;;1.20;0.50;;;19.30;99.90;;;;;;5091598;28;20565;-74
2022/10/01 09:13:51;;;;;;;1.87;0.50;;;19.30;99.90;;;;;;5091625;28;20570;-73
2022/10/01 09:16:30;;;;;;;1.27;0.53;;;19.20;99.90;;;;;;5073909;28;20562;-73
2022/10/01 09:19:30;;;;;;;3.70;0.67;;;19.10;99.90;;;;;;5091661;28;20658;-73
2022/10/01 09:22:00;;;;;;;1.80;0.50;;;19.00;99.90;;;;;;5074172;28;20565;-74
2022/10/01 09:24:49;;;;;;;2.07;0.70;;;18.90;99.90;;;;;;5094650;28;20750;-73
2022/10/01 09:27:23;;;;;;;1.57;0.57;;;18.80;99.90;;;;;;5073501;28;20617;-73
2022/10/01 09:29:59;;;;;;;1.90;0.73;;;18.70;99.90;;;;;;5091257;28;20664;-73
2022/10/01 09:32:30;;;;;;;1.90;0.60;;;18.70;99.90;;;;;;5091425;28;20580;-73
2022/10/01 09:34:59;;;;;;;3.80;0.90;;;18.60;99.90;;;;;;5091428;28;20608;-73
2022/10/01 09:37:53;;;;;;;2.90;0.60;;;18.60;99.90;;;;;;5091475;28;20562;-73
2022/10/01 09:40:29;;;;;;;1.97;0.60;;;18.60;99.90;;;;;;5084880;28;20593;-73
2022/10/01 09:42:55;;;;;;;1.40;0.60;;;18.70;99.90;;;;;;5074155;28;20747;-73
2022/10/01 09:45:22;;;;;;;2.80;1.00;;;19.00;99.90;;;;;;5091369;28;20597;-73
2022/10/01 09:47:52;;;;;;;2.43;0.80;;;19.30;99.90;;;;;;5091221;28;20716;-73
2022/10/01 09:50:30;;;;;;;2.77;0.80;;;19.80;99.90;;;;;;5091126;28;20707;-73
2022/10/01 09:52:59;;;;;;;3.10;0.70;;;20.50;99.90;;;;;;5091235;28;20661;-73
2022/10/01 09:55:38;;;;;;;3.63;0.80;;;21.30;99.90;;;;;;5091105;28;20609;-73
2022/10/01 09:58:10;;;;;;;3.60;0.80;;;21.80;99.90;;;;;;5091318;28;20576;-73
2022/10/01 10:00:38;;;;;;;1.30;0.60;;;22.50;99.90;;;;;;5092642;28;20566;-72
2022/10/01 10:03:03;;;;;;;2.13;0.80;;;23.40;99.90;;;;;;5091098;28;20918;-72
2022/10/01 10:05:40;;;;;;;1.90;0.93;;;24.20;99.90;;;;;;5091187;28;20593;-74
2022/10/01 10:08:27;;;;;;;4.87;1.00;;;24.80;99.90;;;;;;5073092;28;20682;-72
2022/10/01 10:11:08;;;;;;;3.00;1.07;;;25.30;99.90;;;;;;5090751;28;20565;-73
2022/10/01 10:13:40;;;;;;;3.43;0.93;;;25.80;99.90;;;;;;5091905;28;20573;-73
2022/10/01 10:16:27;;;;;;;2.93;1.10;;;26.30;99.90;;;;;;5095033;28;21154;-72
2022/10/01 10:19:01;;;;;;;3.90;1.70;;;26.80;99.90;;;;;;5094977;28;20616;-73
2022/10/01 10:21:29;;;;;;;5.13;2.47;;;27.00;99.90;;;;;;5094465;28;20933;-73
2022/10/01 10:24:00;;;;;;;3.63;2.30;;;27.00;99.90;;;;;;5094601;28;20689;-72
2022/10/01 10:26:41;;;;;;;3.80;1.77;;;27.20;99.90;;;;;;5094741;28;20667;-72
2022/10/01 10:29:23;;;;;;;2.27;1.00;;;27.40;99.90;;;;;;5094723;28;20640;-73
2022/10/01 10:31:50;;;;;;;2.60;1.00;;;27.80;99.90;;;;;;5094608;28;20564;-73
2022/10/01 10:34:26;;;;;;;4.37;0.93;;;27.90;99.90;;;;;;5094654;28;20609;-73
2022/10/01 10:37:04;;;;;;;2.43;0.90;;;28.10;99.90;;;;;;5094667;28;20755;-73
2022/10/01 10:39:38;;;;;;;6.70;1.20;;;28.20;99.90;;;;;;5094570;28;20573;-73
2022/10/01 10:42:05;;;;;;;2.90;1.10;;;28.50;99.90;;;;;;5076280;28;20561;-73
2022/10/01 10:44:38;;;;;;;2.80;0.90;;;28.60;99.90;;;;;;5094185;28;21006;-73
2022/10/01 10:47:12;;;;;;;2.30;0.90;;;28.60;99.90;;;;;;5094279;28;20607;-73
2022/10/01 10:49:53;;;;;;;3.43;1.10;;;28.60;99.90;;;;;;5094042;28;20549;-73
2022/10/01 10:52:22;;;;;;;3.27;1.07;;;28.60;99.90;;;;;;5094219;28;20933;-78
2022/10/01 10:54:53;;;;;;;7.13;1.37;;;28.30;99.90;;;;;;5094189;28;20677;-78
2022/10/01 10:57:26;;;;;;;4.40;1.30;;;28.10;99.50;;;;;;5094245;28;20587;-78
2022/10/01 11:00:00;;;;;;;3.00;0.80;;;28.00;99.10;;;;;;5093834;28;20588;-78
2022/10/01 11:02:30;;;;;;;3.07;1.10;;;28.00;98.80;;;;;;5093960;28;20570;-78
2022/10/01 11:05:00;;;;;;;3.30;1.20;;;28.10;99.70;;;;;;5094206;28;20614;-77
2022/10/01 11:07:27;;;;;;;3.40;1.50;;;28.30;98.50;;;;;;5076174;28;20609;-78
2022/10/01 11:10:05;;;;;;;4.07;1.50;;;28.30;97.70;;;;;;5093607;28;20626;-78
2022/10/01 11:12:30;;;;;;;3.73;1.20;;;28.40;96.60;;;;;;5075915;28;20570;-78
2022/10/01 11:15:20;;;;;;;4.73;1.20;;;28.50;97.20;;;;;;5097702;28;20616;-78
2022/10/01 11:17:46;;;;;;;3.00;1.07;;;28.60;96.80;;;;;;5068140;28;20666;-77
2022/10/01 11:20:37;;;;;;;2.90;1.03;;;28.80;95.80;;;;;;5093772;28;20574;-77
2022/10/01 11:23:28;;;;;;;2.40;1.00;;;28.60;92.80;;;;;;5093780;28;20205;-78
2022/10/01 11:26:12;;;;;;;2.90;1.53;;;28.20;92.60;;;;;;5093610;28;20601;-78
2022/10/01 11:28:56;;;;;;;3.87;1.47;;;27.60;91.90;;;;;;5075360;28;20639;-78
2022/10/01 11:31:53;;;;;;;4.93;1.73;;;27.00;91.80;;;;;;5093419;28;20975;-79
2022/10/01 11:34:36;;;;;;;3.80;1.67;;;26.30;91.90;;;;;;5075472;28;20607;-79
2022/10/01 11:37:13;;;;;;;4.20;1.63;;;25.60;93.00;;;;;;5093687;28;20571;-79
2022/10/01 11:39:42;;;;;;;4.23;1.27;;;25.10;93.60;;;;;;5093341;28;20966;-79
2022/10/01 11:42:19;;;;;;;3.47;2.20;;;24.60;94.40;;;;;;5058502;28;20668;-79
2022/10/01 11:44:56;;;;;;;4.80;2.17;;;24.20;95.20;;;;;;5093354;28;20684;-79
2022/10/01 11:47:35;;;;;;;4.30;2.40;;;23.80;95.90;;;;;;5093234;28;20627;-79
2022/10/01 11:50:15;;;;;;;3.60;1.43;;;23.30;96.30;;;;;;5093439;28;20968;-79
2022/10/01 11:52:43;;;;;;;3.47;1.10;;;22.80;96.70;;;;;;5096638;28;20608;-79
2022/10/01 11:58:51;;;;;;;3.30;0.90;;;21.90;97.10;;;;;;5093228;28;20937;-73
2022/10/01 12:01:26;;;;;;;6.30;0.93;;;21.50;98.00;;;;;;5074729;28;20930;-73
2022/10/01 12:03:52;;;;;;;1.60;0.70;;;21.10;98.90;;;;;;5093074;28;20642;-73
2022/10/01 12:06:51;;;;;;;2.30;0.87;;;20.80;99.40;;;;;;5092949;28;20570;-73
2022/10/01 12:09:31;;;;;;;3.03;0.97;;;20.70;99.90;;;;;;5092648;28;20199;-73
2022/10/01 12:12:07;;;;;;;4.20;1.10;;;20.60;99.90;;;;;;5092921;28;20557;-73
2022/10/01 12:14:43;;;;;;;3.40;1.77;;;20.40;99.90;;;;;;5092544;28;20617;-73
2022/10/01 12:17:33;;;;;;;3.17;1.20;;;20.20;99.90;;;;;;5074679;28;20931;-73
2022/10/01 12:20:03;;;;;;;3.37;1.40;;;20.00;99.90;;;;;;5057780;28;20576;-73
2022/10/01 12:22:32;;;;;;;4.57;1.40;;;19.70;99.90;;;;;;5057703;28;20578;-73
2022/10/01 12:24:58;;;;;;;4.33;1.80;;;19.50;99.90;;;;;;5092584;28;20651;-73
2022/10/01 12:27:49;;;;;;;7.13;4.20;;;19.20;99.90;;;;;;5074695;28;20617;-73
2022/10/01 12:30:21;;;;;;;9.63;4.10;;;19.00;99.90;;;;;;5094836;28;20562;-73
2022/10/01 12:33:12;;;;;;;2.83;1.53;;;18.80;99.90;;;;;;5092418;28;20986;-75
2022/10/01 12:35:46;;;;;;;3.20;1.60;;;18.50;99.90;;;;;;5091784;28;21000;-73
2022/10/01 12:38:37;;;;;;;6.13;2.97;;;18.30;99.90;;;;;;5074420;28;21143;-73
2022/10/01 12:41:08;;;;;;;5.00;3.37;;;18.00;99.90;;;;;;5092234;28;20672;-73
2022/10/01 12:44:19;;;;;;;3.10;1.73;;;17.70;99.90;;;;;;5092189;28;21113;-73
2022/10/01 12:47:20;;;;;;;6.90;5.13;;;17.60;99.90;;;;;;5089133;28;20597;-73
2022/10/01 12:50:00;;;;;;;12.13;9.10;;;17.40;99.90;;;;;;5080850;28;20596;-74
2022/10/01 12:52:38;;;;;;;14.77;11.60;;;17.30;99.90;;;;;;5073579;28;20573;-72
2022/10/01 12:55:28;;;;;;;11.20;8.53;;;17.40;99.90;;;;;;5092140;28;20599;-73
2022/10/01 12:58:10;;;;;;;7.33;5.70;;;17.50;99.90;;;;;;5073979;28;20580;-73
2022/10/01 13:00:49;;;;;;;6.43;4.20;;;17.60;99.90;;;;;;5073632;28;20553;-73
2022/10/01 13:03:36;;;;;;;6.20;3.70;;;17.70;99.90;;;;;;5073746;28;20585;-73
2022/10/01 13:06:31;;;;;;;4.50;2.80;;;17.80;99.90;;;;;;5092768;28;20557;-73
2022/10/01 13:09:12;;;;;;;5.03;3.63;;;17.90;99.90;;;;;;5073751;28;20656;-73
2022/10/01 13:12:08;;;;;;;5.47;2.90;;;18.00;99.90;;;;;;5073682;28;20585;-73
2022/10/01 13:14:34;;;;;;;5.97;3.03;;;18.10;99.90;;;;;;5074151;28;20613;-73